sensor_id;sensor_type;location;lat;lon;timestamp;P1;durP1;ratioP1;P2;durP2;ratioP2
22849;SDS011;11591;44.792;10.358;2023-02-07T00:00:34;19.55;;;7.80;;
22849;SDS011;11591;44.792;10.358;2023-02-07T00:03:00;13.73;;;7.30;;
22849;SDS011;11591;44.792;10.358;2023-02-07T00:05:26;14.60;;;7.00;;
22849;SDS011;11591;44.792;10.358;2023-02-07T00:07:52;18.15;;;7.65;;
22849;SDS011;11591;44.792;10.358;2023-02-07T00:10:18;19.83;;;7.65;;
22849;SDS011;11591;44.792;10.358;2023-02-07T00:12:44;20.20;;;7.63;;
22849;SDS011;11591;44.792;10.358;2023-02-07T00:15:10;17.27;;;8.15;;
22849;SDS011;11591;44.792;10.358;2023-02-07T00:17:36;18.27;;;7.25;;
22849;SDS011;11591;44.792;10.358;2023-02-07T00:20:02;22.73;;;8.40;;
22849;SDS011;11591;44.792;10.358;2023-02-07T00:22:28;15.52;;;7.88;;
22849;SDS011;11591;44.792;10.358;2023-02-07T00:24:54;17.35;;;8.02;;
22849;SDS011;11591;44.792;10.358;2023-02-07T00:27:20;20.90;;;7.93;;
22849;SDS011;11591;44.792;10.358;2023-02-07T00:29:46;21.30;;;8.77;;
22849;SDS011;11591;44.792;10.358;2023-02-07T00:32:11;15.93;;;7.93;;
22849;SDS011;11591;44.792;10.358;2023-02-07T00:34:38;17.40;;;7.72;;
22849;SDS011;11591;44.792;10.358;2023-02-07T00:37:04;21.73;;;8.30;;
22849;SDS011;11591;44.792;10.358;2023-02-07T00:39:30;17.35;;;8.13;;
22849;SDS011;11591;44.792;10.358;2023-02-07T00:41:57;30.83;;;8.80;;
22849;SDS011;11591;44.792;10.358;2023-02-07T00:44:22;16.77;;;8.27;;
22849;SDS011;11591;44.792;10.358;2023-02-07T00:46:50;19.75;;;8.25;;
22849;SDS011;11591;44.792;10.358;2023-02-07T00:49:16;19.23;;;8.73;;
22849;SDS011;11591;44.792;10.358;2023-02-07T00:51:42;20.00;;;8.63;;
22849;SDS011;11591;44.792;10.358;2023-02-07T00:54:08;19.00;;;8.88;;
22849;SDS011;11591;44.792;10.358;2023-02-07T00:56:34;23.95;;;9.38;;
22849;SDS011;11591;44.792;10.358;2023-02-07T00:58:59;16.05;;;7.97;;
22849;SDS011;11591;44.792;10.358;2023-02-07T01:01:25;21.05;;;8.90;;
22849;SDS011;11591;44.792;10.358;2023-02-07T01:03:53;18.00;;;9.25;;
22849;SDS011;11591;44.792;10.358;2023-02-07T01:06:19;20.40;;;10.05;;
22849;SDS011;11591;44.792;10.358;2023-02-07T01:08:45;21.15;;;9.70;;
22849;SDS011;11591;44.792;10.358;2023-02-07T01:11:12;21.15;;;8.70;;
22849;SDS011;11591;44.792;10.358;2023-02-07T01:13:40;16.75;;;8.77;;
22849;SDS011;11591;44.792;10.358;2023-02-07T01:16:18;20.30;;;8.65;;
22849;SDS011;11591;44.792;10.358;2023-02-07T01:18:49;18.15;;;8.82;;
22849;SDS011;11591;44.792;10.358;2023-02-07T01:21:17;23.90;;;9.90;;
22849;SDS011;11591;44.792;10.358;2023-02-07T01:23:44;20.00;;;9.25;;
22849;SDS011;11591;44.792;10.358;2023-02-07T01:26:10;17.33;;;8.57;;
22849;SDS011;11591;44.792;10.358;2023-02-07T01:28:36;22.08;;;9.05;;
22849;SDS011;11591;44.792;10.358;2023-02-07T01:31:07;23.08;;;9.30;;
22849;SDS011;11591;44.792;10.358;2023-02-07T01:33:35;22.27;;;9.32;;
22849;SDS011;11591;44.792;10.358;2023-02-07T01:36:20;20.38;;;8.77;;
22849;SDS011;11591;44.792;10.358;2023-02-07T01:38:46;20.92;;;10.00;;
22849;SDS011;11591;44.792;10.358;2023-02-07T01:41:13;20.88;;;9.38;;
22849;SDS011;11591;44.792;10.358;2023-02-07T01:46:26;22.35;;;9.32;;
22849;SDS011;11591;44.792;10.358;2023-02-07T01:48:53;26.75;;;9.18;;
22849;SDS011;11591;44.792;10.358;2023-02-07T01:51:22;19.90;;;9.05;;
22849;SDS011;11591;44.792;10.358;2023-02-07T01:53:49;22.00;;;9.00;;
22849;SDS011;11591;44.792;10.358;2023-02-07T01:56:17;20.40;;;9.63;;
22849;SDS011;11591;44.792;10.358;2023-02-07T01:58:43;21.60;;;9.30;;
22849;SDS011;11591;44.792;10.358;2023-02-07T02:01:14;25.23;;;9.45;;
22849;SDS011;11591;44.792;10.358;2023-02-07T02:03:46;24.30;;;10.10;;
22849;SDS011;11591;44.792;10.358;2023-02-07T02:06:14;20.98;;;9.70;;
22849;SDS011;11591;44.792;10.358;2023-02-07T02:08:42;24.15;;;9.82;;
22849;SDS011;11591;44.792;10.358;2023-02-07T02:13:53;18.38;;;9.00;;
22849;SDS011;11591;44.792;10.358;2023-02-07T02:22:34;20.92;;;8.75;;
22849;SDS011;11591;44.792;10.358;2023-02-07T02:33:56;20.73;;;8.80;;
22849;SDS011;11591;44.792;10.358;2023-02-07T02:36:44;20.95;;;8.35;;
22849;SDS011;11591;44.792;10.358;2023-02-07T02:44:59;19.85;;;9.07;;
22849;SDS011;11591;44.792;10.358;2023-02-07T02:47:35;22.10;;;9.10;;
22849;SDS011;11591;44.792;10.358;2023-02-07T02:50:03;21.00;;;9.20;;
22849;SDS011;11591;44.792;10.358;2023-02-07T02:52:39;19.17;;;9.30;;
22849;SDS011;11591;44.792;10.358;2023-02-07T02:55:05;20.13;;;9.38;;
22849;SDS011;11591;44.792;10.358;2023-02-07T02:57:50;19.75;;;8.05;;
22849;SDS011;11591;44.792;10.358;2023-02-07T03:00:34;22.65;;;8.70;;
22849;SDS011;11591;44.792;10.358;2023-02-07T03:03:42;20.90;;;8.68;;
22849;SDS011;11591;44.792;10.358;2023-02-07T03:06:15;18.25;;;8.40;;
22849;SDS011;11591;44.792;10.358;2023-02-07T03:11:37;23.92;;;9.20;;
22849;SDS011;11591;44.792;10.358;2023-02-07T03:17:17;20.55;;;9.25;;
22849;SDS011;11591;44.792;10.358;2023-02-07T03:20:00;21.98;;;9.35;;
22849;SDS011;11591;44.792;10.358;2023-02-07T03:22:34;21.95;;;8.98;;
22849;SDS011;11591;44.792;10.358;2023-02-07T03:25:02;23.55;;;9.98;;
22849;SDS011;11591;44.792;10.358;2023-02-07T03:27:31;23.98;;;9.57;;
22849;SDS011;11591;44.792;10.358;2023-02-07T03:29:59;25.27;;;10.02;;
22849;SDS011;11591;44.792;10.358;2023-02-07T03:32:35;24.08;;;9.48;;
22849;SDS011;11591;44.792;10.358;2023-02-07T03:35:14;22.77;;;9.75;;
22849;SDS011;11591;44.792;10.358;2023-02-07T03:37:54;19.15;;;9.60;;
22849;SDS011;11591;44.792;10.358;2023-02-07T03:40:23;23.30;;;10.27;;
22849;SDS011;11591;44.792;10.358;2023-02-07T03:42:58;23.88;;;10.38;;
22849;SDS011;11591;44.792;10.358;2023-02-07T03:45:32;28.42;;;9.95;;
22849;SDS011;11591;44.792;10.358;2023-02-07T03:47:58;28.13;;;10.45;;
22849;SDS011;11591;44.792;10.358;2023-02-07T03:50:24;23.77;;;10.30;;
22849;SDS011;11591;44.792;10.358;2023-02-07T03:52:50;24.25;;;9.75;;
22849;SDS011;11591;44.792;10.358;2023-02-07T03:55:16;22.85;;;10.60;;
22849;SDS011;11591;44.792;10.358;2023-02-07T03:57:41;23.70;;;10.35;;
22849;SDS011;11591;44.792;10.358;2023-02-07T04:00:08;23.33;;;9.93;;
22849;SDS011;11591;44.792;10.358;2023-02-07T04:02:37;23.13;;;10.18;;
22849;SDS011;11591;44.792;10.358;2023-02-07T04:05:04;25.55;;;10.57;;
22849;SDS011;11591;44.792;10.358;2023-02-07T04:07:30;24.55;;;10.18;;
22849;SDS011;11591;44.792;10.358;2023-02-07T04:09:55;25.70;;;10.35;;
22849;SDS011;11591;44.792;10.358;2023-02-07T04:12:21;23.50;;;10.73;;
22849;SDS011;11591;44.792;10.358;2023-02-07T04:14:47;20.85;;;9.57;;
22849;SDS011;11591;44.792;10.358;2023-02-07T04:17:13;23.15;;;10.55;;
22849;SDS011;11591;44.792;10.358;2023-02-07T04:19:39;23.13;;;10.23;;
22849;SDS011;11591;44.792;10.358;2023-02-07T04:22:05;23.05;;;9.98;;
22849;SDS011;11591;44.792;10.358;2023-02-07T04:24:30;24.05;;;10.85;;
22849;SDS011;11591;44.792;10.358;2023-02-07T04:26:59;24.92;;;9.73;;
22849;SDS011;11591;44.792;10.358;2023-02-07T04:29:25;35.45;;;10.38;;
22849;SDS011;11591;44.792;10.358;2023-02-07T04:31:51;21.60;;;9.88;;
22849;SDS011;11591;44.792;10.358;2023-02-07T04:34:17;21.98;;;9.57;;
22849;SDS011;11591;44.792;10.358;2023-02-07T04:36:42;26.25;;;10.35;;
22849;SDS011;11591;44.792;10.358;2023-02-07T04:39:08;21.50;;;10.20;;
22849;SDS011;11591;44.792;10.358;2023-02-07T04:41:34;24.05;;;10.45;;
22849;SDS011;11591;44.792;10.358;2023-02-07T04:44:00;22.33;;;10.68;;
22849;SDS011;11591;44.792;10.358;2023-02-07T04:46:26;22.52;;;9.75;;
22849;SDS011;11591;44.792;10.358;2023-02-07T04:48:52;21.95;;;10.38;;
22849;SDS011;11591;44.792;10.358;2023-02-07T04:51:18;22.60;;;9.73;;
22849;SDS011;11591;44.792;10.358;2023-02-07T04:53:44;26.40;;;10.32;;
22849;SDS011;11591;44.792;10.358;2023-02-07T04:56:10;22.77;;;10.73;;
22849;SDS011;11591;44.792;10.358;2023-02-07T04:58:36;25.05;;;10.40;;
22849;SDS011;11591;44.792;10.358;2023-02-07T05:01:02;23.95;;;10.60;;
22849;SDS011;11591;44.792;10.358;2023-02-07T05:03:28;24.27;;;10.77;;
22849;SDS011;11591;44.792;10.358;2023-02-07T05:05:53;29.00;;;10.48;;
22849;SDS011;11591;44.792;10.358;2023-02-07T05:08:19;28.83;;;11.07;;
22849;SDS011;11591;44.792;10.358;2023-02-07T05:10:46;25.00;;;11.30;;
22849;SDS011;11591;44.792;10.358;2023-02-07T05:13:16;22.45;;;10.57;;
22849;SDS011;11591;44.792;10.358;2023-02-07T05:15:41;25.10;;;10.55;;
22849;SDS011;11591;44.792;10.358;2023-02-07T05:18:07;23.75;;;10.27;;
22849;SDS011;11591;44.792;10.358;2023-02-07T05:20:33;25.00;;;10.27;;
22849;SDS011;11591;44.792;10.358;2023-02-07T05:22:59;23.23;;;10.43;;
22849;SDS011;11591;44.792;10.358;2023-02-07T05:25:25;25.92;;;9.95;;
22849;SDS011;11591;44.792;10.358;2023-02-07T05:27:50;21.17;;;9.82;;
22849;SDS011;11591;44.792;10.358;2023-02-07T05:30:17;23.23;;;9.90;;
22849;SDS011;11591;44.792;10.358;2023-02-07T05:32:43;25.23;;;10.07;;
22849;SDS011;11591;44.792;10.358;2023-02-07T05:35:28;22.05;;;10.10;;
22849;SDS011;11591;44.792;10.358;2023-02-07T05:38:14;23.02;;;9.85;;
22849;SDS011;11591;44.792;10.358;2023-02-07T05:40:41;23.25;;;9.63;;
22849;SDS011;11591;44.792;10.358;2023-02-07T05:43:08;23.67;;;9.43;;
22849;SDS011;11591;44.792;10.358;2023-02-07T05:45:35;23.70;;;10.05;;
22849;SDS011;11591;44.792;10.358;2023-02-07T05:48:01;22.70;;;10.18;;
22849;SDS011;11591;44.792;10.358;2023-02-07T05:50:28;20.27;;;9.95;;
22849;SDS011;11591;44.792;10.358;2023-02-07T05:53:04;28.13;;;10.32;;
22849;SDS011;11591;44.792;10.358;2023-02-07T05:55:31;24.33;;;10.45;;
22849;SDS011;11591;44.792;10.358;2023-02-07T05:57:57;23.58;;;9.60;;
22849;SDS011;11591;44.792;10.358;2023-02-07T06:00:23;26.60;;;10.45;;
22849;SDS011;11591;44.792;10.358;2023-02-07T06:02:49;21.30;;;9.88;;
22849;SDS011;11591;44.792;10.358;2023-02-07T06:05:15;26.05;;;10.45;;
22849;SDS011;11591;44.792;10.358;2023-02-07T06:07:44;26.27;;;10.52;;
22849;SDS011;11591;44.792;10.358;2023-02-07T06:10:11;26.38;;;10.05;;
22849;SDS011;11591;44.792;10.358;2023-02-07T06:12:38;24.92;;;10.68;;
22849;SDS011;11591;44.792;10.358;2023-02-07T06:15:04;24.55;;;10.18;;
22849;SDS011;11591;44.792;10.358;2023-02-07T06:17:30;22.23;;;9.88;;
22849;SDS011;11591;44.792;10.358;2023-02-07T06:19:56;27.48;;;10.57;;
22849;SDS011;11591;44.792;10.358;2023-02-07T06:22:22;23.08;;;10.45;;
22849;SDS011;11591;44.792;10.358;2023-02-07T06:24:48;23.63;;;10.38;;
22849;SDS011;11591;44.792;10.358;2023-02-07T06:27:13;25.75;;;10.23;;
22849;SDS011;11591;44.792;10.358;2023-02-07T06:29:39;25.98;;;10.18;;
22849;SDS011;11591;44.792;10.358;2023-02-07T06:32:05;25.92;;;10.23;;
22849;SDS011;11591;44.792;10.358;2023-02-07T06:34:31;23.33;;;10.57;;
22849;SDS011;11591;44.792;10.358;2023-02-07T06:36:57;21.42;;;9.93;;
22849;SDS011;11591;44.792;10.358;2023-02-07T06:39:23;30.17;;;10.77;;
22849;SDS011;11591;44.792;10.358;2023-02-07T06:41:48;26.88;;;10.55;;
22849;SDS011;11591;44.792;10.358;2023-02-07T06:44:14;28.85;;;10.40;;
22849;SDS011;11591;44.792;10.358;2023-02-07T06:46:40;26.98;;;10.55;;
22849;SDS011;11591;44.792;10.358;2023-02-07T06:49:06;22.48;;;10.38;;
22849;SDS011;11591;44.792;10.358;2023-02-07T06:51:32;24.77;;;10.18;;
22849;SDS011;11591;44.792;10.358;2023-02-07T06:53:58;23.65;;;10.10;;
22849;SDS011;11591;44.792;10.358;2023-02-07T06:56:26;21.48;;;9.20;;
22849;SDS011;11591;44.792;10.358;2023-02-07T06:58:51;21.42;;;8.88;;
22849;SDS011;11591;44.792;10.358;2023-02-07T07:01:17;21.00;;;9.05;;
22849;SDS011;11591;44.792;10.358;2023-02-07T07:03:44;21.35;;;9.93;;
22849;SDS011;11591;44.792;10.358;2023-02-07T07:06:11;24.42;;;9.75;;
22849;SDS011;11591;44.792;10.358;2023-02-07T07:08:37;22.00;;;9.48;;
22849;SDS011;11591;44.792;10.358;2023-02-07T07:11:02;23.10;;;9.77;;
22849;SDS011;11591;44.792;10.358;2023-02-07T07:13:28;22.63;;;10.02;;
22849;SDS011;11591;44.792;10.358;2023-02-07T07:15:54;24.33;;;11.43;;
22849;SDS011;11591;44.792;10.358;2023-02-07T07:18:20;29.20;;;10.07;;
22849;SDS011;11591;44.792;10.358;2023-02-07T07:20:51;22.73;;;9.55;;
22849;SDS011;11591;44.792;10.358;2023-02-07T07:23:18;25.80;;;9.40;;
22849;SDS011;11591;44.792;10.358;2023-02-07T07:25:44;23.02;;;9.18;;
22849;SDS011;11591;44.792;10.358;2023-02-07T07:28:10;30.05;;;9.95;;
22849;SDS011;11591;44.792;10.358;2023-02-07T07:30:36;24.95;;;9.32;;
22849;SDS011;11591;44.792;10.358;2023-02-07T07:33:01;28.30;;;9.35;;
22849;SDS011;11591;44.792;10.358;2023-02-07T07:35:27;24.58;;;9.35;;
22849;SDS011;11591;44.792;10.358;2023-02-07T07:37:53;25.52;;;9.85;;
22849;SDS011;11591;44.792;10.358;2023-02-07T07:40:19;27.95;;;9.63;;
22849;SDS011;11591;44.792;10.358;2023-02-07T07:42:45;31.33;;;9.63;;
22849;SDS011;11591;44.792;10.358;2023-02-07T07:45:23;19.67;;;9.15;;
22849;SDS011;11591;44.792;10.358;2023-02-07T07:47:49;22.23;;;8.77;;
22849;SDS011;11591;44.792;10.358;2023-02-07T07:50:15;23.77;;;9.82;;
22849;SDS011;11591;44.792;10.358;2023-02-07T07:52:41;25.77;;;9.82;;
22849;SDS011;11591;44.792;10.358;2023-02-07T07:55:07;24.35;;;9.43;;
22849;SDS011;11591;44.792;10.358;2023-02-07T07:57:33;24.58;;;9.63;;
22849;SDS011;11591;44.792;10.358;2023-02-07T07:59:59;23.38;;;9.13;;
22849;SDS011;11591;44.792;10.358;2023-02-07T08:02:25;22.85;;;9.10;;
22849;SDS011;11591;44.792;10.358;2023-02-07T08:04:51;20.88;;;9.15;;
22849;SDS011;11591;44.792;10.358;2023-02-07T08:07:17;21.40;;;9.15;;
22849;SDS011;11591;44.792;10.358;2023-02-07T08:09:46;21.20;;;9.00;;
22849;SDS011;11591;44.792;10.358;2023-02-07T08:12:12;21.70;;;8.77;;
22849;SDS011;11591;44.792;10.358;2023-02-07T08:14:37;22.75;;;8.70;;
22849;SDS011;11591;44.792;10.358;2023-02-07T08:17:03;24.30;;;9.32;;
22849;SDS011;11591;44.792;10.358;2023-02-07T08:19:29;22.00;;;8.60;;
22849;SDS011;11591;44.792;10.358;2023-02-07T08:21:55;22.58;;;8.57;;
22849;SDS011;11591;44.792;10.358;2023-02-07T08:24:21;21.50;;;8.80;;
22849;SDS011;11591;44.792;10.358;2023-02-07T08:26:47;36.90;;;11.73;;
22849;SDS011;11591;44.792;10.358;2023-02-07T08:29:12;28.60;;;11.25;;
22849;SDS011;11591;44.792;10.358;2023-02-07T08:31:38;25.40;;;11.10;;
22849;SDS011;11591;44.792;10.358;2023-02-07T08:34:04;33.17;;;11.38;;
22849;SDS011;11591;44.792;10.358;2023-02-07T08:36:30;25.98;;;10.68;;
22849;SDS011;11591;44.792;10.358;2023-02-07T08:38:56;32.05;;;11.10;;
22849;SDS011;11591;44.792;10.358;2023-02-07T08:41:22;24.55;;;10.50;;
22849;SDS011;11591;44.792;10.358;2023-02-07T08:43:47;22.70;;;9.43;;
22849;SDS011;11591;44.792;10.358;2023-02-07T08:46:13;31.33;;;10.55;;
22849;SDS011;11591;44.792;10.358;2023-02-07T08:48:39;32.63;;;10.30;;
22849;SDS011;11591;44.792;10.358;2023-02-07T08:51:06;23.15;;;8.95;;
22849;SDS011;11591;44.792;10.358;2023-02-07T08:53:33;22.17;;;8.20;;
22849;SDS011;11591;44.792;10.358;2023-02-07T08:55:59;20.10;;;7.22;;
22849;SDS011;11591;44.792;10.358;2023-02-07T08:58:24;20.17;;;7.43;;
22849;SDS011;11591;44.792;10.358;2023-02-07T09:00:50;22.40;;;8.45;;
22849;SDS011;11591;44.792;10.358;2023-02-07T09:03:16;24.15;;;8.93;;
22849;SDS011;11591;44.792;10.358;2023-02-07T09:05:42;19.70;;;7.65;;
22849;SDS011;11591;44.792;10.358;2023-02-07T09:08:08;20.52;;;8.38;;
22849;SDS011;11591;44.792;10.358;2023-02-07T09:10:33;18.10;;;8.00;;
22849;SDS011;11591;44.792;10.358;2023-02-07T09:12:59;19.60;;;7.65;;
22849;SDS011;11591;44.792;10.358;2023-02-07T09:15:25;18.95;;;7.57;;
22849;SDS011;11591;44.792;10.358;2023-02-07T09:17:51;26.23;;;7.88;;
22849;SDS011;11591;44.792;10.358;2023-02-07T09:20:17;20.33;;;8.30;;
22849;SDS011;11591;44.792;10.358;2023-02-07T09:22:43;20.88;;;8.02;;
22849;SDS011;11591;44.792;10.358;2023-02-07T09:25:41;17.10;;;7.85;;
22849;SDS011;11591;44.792;10.358;2023-02-07T09:28:07;21.75;;;8.43;;
22849;SDS011;11591;44.792;10.358;2023-02-07T09:30:33;25.55;;;8.65;;
22849;SDS011;11591;44.792;10.358;2023-02-07T09:32:58;21.15;;;8.02;;
22849;SDS011;11591;44.792;10.358;2023-02-07T09:35:24;21.10;;;8.23;;
22849;SDS011;11591;44.792;10.358;2023-02-07T09:37:53;20.38;;;8.48;;
22849;SDS011;11591;44.792;10.358;2023-02-07T09:40:20;22.25;;;8.27;;
22849;SDS011;11591;44.792;10.358;2023-02-07T09:42:56;19.60;;;8.60;;
22849;SDS011;11591;44.792;10.358;2023-02-07T09:45:29;21.13;;;8.50;;
22849;SDS011;11591;44.792;10.358;2023-02-07T09:47:59;19.45;;;8.50;;
22849;SDS011;11591;44.792;10.358;2023-02-07T09:50:34;21.33;;;7.68;;
22849;SDS011;11591;44.792;10.358;2023-02-07T09:53:08;21.90;;;7.25;;
22849;SDS011;11591;44.792;10.358;2023-02-07T09:55:52;17.35;;;7.60;;
22849;SDS011;11591;44.792;10.358;2023-02-07T09:58:38;17.80;;;7.40;;
22849;SDS011;11591;44.792;10.358;2023-02-07T10:01:18;21.83;;;7.47;;
22849;SDS011;11591;44.792;10.358;2023-02-07T10:06:30;21.55;;;8.25;;
22849;SDS011;11591;44.792;10.358;2023-02-07T10:08:59;20.85;;;8.68;;
22849;SDS011;11591;44.792;10.358;2023-02-07T10:11:43;23.58;;;9.60;;
22849;SDS011;11591;44.792;10.358;2023-02-07T10:22:23;23.60;;;9.52;;
22849;SDS011;11591;44.792;10.358;2023-02-07T10:28:21;22.88;;;9.27;;
22849;SDS011;11591;44.792;10.358;2023-02-07T10:30:52;23.38;;;8.70;;
22849;SDS011;11591;44.792;10.358;2023-02-07T10:33:30;18.27;;;8.43;;
22849;SDS011;11591;44.792;10.358;2023-02-07T10:36:01;20.58;;;9.35;;
22849;SDS011;11591;44.792;10.358;2023-02-07T10:41:35;22.58;;;8.70;;
22849;SDS011;11591;44.792;10.358;2023-02-07T10:44:04;23.77;;;8.93;;
22849;SDS011;11591;44.792;10.358;2023-02-07T10:46:31;22.75;;;9.73;;
22849;SDS011;11591;44.792;10.358;2023-02-07T10:48:59;22.92;;;9.90;;
22849;SDS011;11591;44.792;10.358;2023-02-07T10:56:41;17.23;;;7.65;;
22849;SDS011;11591;44.792;10.358;2023-02-07T11:02:33;14.20;;;6.72;;
22849;SDS011;11591;44.792;10.358;2023-02-07T11:04:51;14.65;;;6.35;;
22849;SDS011;11591;44.792;10.358;2023-02-07T11:07:17;15.73;;;6.68;;
22849;SDS011;11591;44.792;10.358;2023-02-07T11:09:46;14.82;;;5.60;;
22849;SDS011;11591;44.792;10.358;2023-02-07T11:12:22;12.85;;;5.90;;
22849;SDS011;11591;44.792;10.358;2023-02-07T11:14:59;15.65;;;5.60;;
22849;SDS011;11591;44.792;10.358;2023-02-07T11:17:39;12.27;;;5.38;;
22849;SDS011;11591;44.792;10.358;2023-02-07T11:20:21;13.57;;;6.15;;
22849;SDS011;11591;44.792;10.358;2023-02-07T11:22:55;12.77;;;5.32;;
22849;SDS011;11591;44.792;10.358;2023-02-07T11:25:26;15.45;;;6.22;;
22849;SDS011;11591;44.792;10.358;2023-02-07T11:27:59;20.17;;;7.25;;
22849;SDS011;11591;44.792;10.358;2023-02-07T11:30:25;18.90;;;7.53;;
22849;SDS011;11591;44.792;10.358;2023-02-07T11:32:54;17.80;;;7.57;;
22849;SDS011;11591;44.792;10.358;2023-02-07T11:35:25;21.95;;;7.97;;
22849;SDS011;11591;44.792;10.358;2023-02-07T11:38:00;22.85;;;7.72;;
22849;SDS011;11591;44.792;10.358;2023-02-07T11:42:56;14.77;;;7.15;;
22849;SDS011;11591;44.792;10.358;2023-02-07T11:45:28;14.70;;;6.85;;
22849;SDS011;11591;44.792;10.358;2023-02-07T11:47:56;16.88;;;7.78;;
22849;SDS011;11591;44.792;10.358;2023-02-07T11:50:25;17.15;;;6.95;;
22849;SDS011;11591;44.792;10.358;2023-02-07T11:52:54;18.13;;;7.70;;
22849;SDS011;11591;44.792;10.358;2023-02-07T11:55:26;16.85;;;7.68;;
22849;SDS011;11591;44.792;10.358;2023-02-07T11:58:00;15.98;;;7.88;;
22849;SDS011;11591;44.792;10.358;2023-02-07T12:00:34;18.58;;;7.80;;
22849;SDS011;11591;44.792;10.358;2023-02-07T12:03:02;17.67;;;7.63;;
22849;SDS011;11591;44.792;10.358;2023-02-07T12:05:34;19.65;;;7.18;;
22849;SDS011;11591;44.792;10.358;2023-02-07T12:08:17;14.57;;;7.35;;
22849;SDS011;11591;44.792;10.358;2023-02-07T12:10:51;16.25;;;7.53;;
22849;SDS011;11591;44.792;10.358;2023-02-07T12:13:29;15.55;;;7.10;;
22849;SDS011;11591;44.792;10.358;2023-02-07T12:16:06;17.02;;;6.85;;
22849;SDS011;11591;44.792;10.358;2023-02-07T12:18:39;16.10;;;7.00;;
22849;SDS011;11591;44.792;10.358;2023-02-07T12:23:44;15.00;;;7.05;;
22849;SDS011;11591;44.792;10.358;2023-02-07T12:40:38;19.20;;;8.02;;
22849;SDS011;11591;44.792;10.358;2023-02-07T12:43:20;15.90;;;8.02;;
22849;SDS011;11591;44.792;10.358;2023-02-07T13:01:48;17.33;;;7.68;;
22849;SDS011;11591;44.792;10.358;2023-02-07T13:04:34;18.52;;;7.72;;
22849;SDS011;11591;44.792;10.358;2023-02-07T13:10:40;18.65;;;8.48;;
22849;SDS011;11591;44.792;10.358;2023-02-07T13:13:37;17.55;;;7.78;;
22849;SDS011;11591;44.792;10.358;2023-02-07T13:19:06;16.67;;;8.05;;
22849;SDS011;11591;44.792;10.358;2023-02-07T13:21:50;23.17;;;8.05;;
22849;SDS011;11591;44.792;10.358;2023-02-07T13:24:28;18.75;;;7.70;;
22849;SDS011;11591;44.792;10.358;2023-02-07T13:26:57;17.58;;;8.07;;
22849;SDS011;11591;44.792;10.358;2023-02-07T13:29:28;15.68;;;7.50;;
22849;SDS011;11591;44.792;10.358;2023-02-07T13:31:57;18.13;;;8.40;;
22849;SDS011;11591;44.792;10.358;2023-02-07T13:34:30;20.85;;;7.93;;
22849;SDS011;11591;44.792;10.358;2023-02-07T13:37:00;15.38;;;7.95;;
22849;SDS011;11591;44.792;10.358;2023-02-07T13:39:35;15.60;;;8.23;;
22849;SDS011;11591;44.792;10.358;2023-02-07T13:42:32;15.63;;;7.63;;
22849;SDS011;11591;44.792;10.358;2023-02-07T13:45:05;15.20;;;7.57;;
22849;SDS011;11591;44.792;10.358;2023-02-07T13:48:00;15.68;;;8.00;;
22849;SDS011;11591;44.792;10.358;2023-02-07T13:55:53;17.65;;;7.68;;
22849;SDS011;11591;44.792;10.358;2023-02-07T14:01:16;17.58;;;8.63;;
22849;SDS011;11591;44.792;10.358;2023-02-07T14:04:06;14.50;;;8.05;;
22849;SDS011;11591;44.792;10.358;2023-02-07T14:06:34;17.80;;;8.77;;
22849;SDS011;11591;44.792;10.358;2023-02-07T14:12:05;19.95;;;8.75;;
22849;SDS011;11591;44.792;10.358;2023-02-07T14:14:40;25.23;;;15.20;;
22849;SDS011;11591;44.792;10.358;2023-02-07T14:17:12;17.67;;;8.32;;
22849;SDS011;11591;44.792;10.358;2023-02-07T14:19:59;16.52;;;7.95;;
22849;SDS011;11591;44.792;10.358;2023-02-07T14:33:03;14.73;;;8.27;;
22849;SDS011;11591;44.792;10.358;2023-02-07T14:41:43;16.67;;;8.30;;
22849;SDS011;11591;44.792;10.358;2023-02-07T14:46:51;14.95;;;8.15;;
22849;SDS011;11591;44.792;10.358;2023-02-07T14:49:34;13.32;;;8.13;;
22849;SDS011;11591;44.792;10.358;2023-02-07T14:52:02;13.52;;;8.02;;
22849;SDS011;11591;44.792;10.358;2023-02-07T14:57:30;13.55;;;7.78;;
22849;SDS011;11591;44.792;10.358;2023-02-07T15:02:40;17.40;;;8.57;;
22849;SDS011;11591;44.792;10.358;2023-02-07T15:05:25;15.45;;;8.63;;
22849;SDS011;11591;44.792;10.358;2023-02-07T15:10:29;16.90;;;7.85;;
22849;SDS011;11591;44.792;10.358;2023-02-07T15:12:56;12.20;;;8.02;;
22849;SDS011;11591;44.792;10.358;2023-02-07T15:15:24;16.20;;;8.30;;
22849;SDS011;11591;44.792;10.358;2023-02-07T15:17:51;13.77;;;8.05;;
22849;SDS011;11591;44.792;10.358;2023-02-07T15:20:20;15.68;;;8.68;;
22849;SDS011;11591;44.792;10.358;2023-02-07T15:22:52;15.88;;;8.57;;
22849;SDS011;11591;44.792;10.358;2023-02-07T15:25:19;17.55;;;9.70;;
22849;SDS011;11591;44.792;10.358;2023-02-07T15:33:39;14.13;;;8.23;;
22849;SDS011;11591;44.792;10.358;2023-02-07T15:38:59;12.77;;;8.38;;
22849;SDS011;11591;44.792;10.358;2023-02-07T15:41:27;12.48;;;7.97;;
22849;SDS011;11591;44.792;10.358;2023-02-07T15:46:22;18.60;;;10.30;;
22849;SDS011;11591;44.792;10.358;2023-02-07T15:48:50;26.67;;;14.07;;
22849;SDS011;11591;44.792;10.358;2023-02-07T15:51:21;25.70;;;13.32;;
22849;SDS011;11591;44.792;10.358;2023-02-07T15:53:56;24.00;;;12.70;;
22849;SDS011;11591;44.792;10.358;2023-02-07T15:56:24;26.92;;;13.23;;
22849;SDS011;11591;44.792;10.358;2023-02-07T15:58:50;21.83;;;10.60;;
22849;SDS011;11591;44.792;10.358;2023-02-07T16:01:23;18.95;;;9.20;;
22849;SDS011;11591;44.792;10.358;2023-02-07T16:03:53;27.42;;;13.32;;
22849;SDS011;11591;44.792;10.358;2023-02-07T16:06:22;21.55;;;11.73;;
22849;SDS011;11591;44.792;10.358;2023-02-07T16:08:50;19.13;;;9.65;;
22849;SDS011;11591;44.792;10.358;2023-02-07T16:13:49;16.55;;;8.57;;
22849;SDS011;11591;44.792;10.358;2023-02-07T16:16:24;18.48;;;10.57;;
22849;SDS011;11591;44.792;10.358;2023-02-07T16:18:51;20.23;;;9.55;;
22849;SDS011;11591;44.792;10.358;2023-02-07T16:21:30;19.58;;;10.43;;
22849;SDS011;11591;44.792;10.358;2023-02-07T16:24:03;17.98;;;9.80;;
22849;SDS011;11591;44.792;10.358;2023-02-07T16:26:32;16.83;;;9.40;;
22849;SDS011;11591;44.792;10.358;2023-02-07T16:29:02;16.17;;;8.93;;
22849;SDS011;11591;44.792;10.358;2023-02-07T16:31:30;17.83;;;9.57;;
22849;SDS011;11591;44.792;10.358;2023-02-07T16:33:56;19.63;;;8.98;;
22849;SDS011;11591;44.792;10.358;2023-02-07T16:36:22;21.80;;;9.57;;
22849;SDS011;11591;44.792;10.358;2023-02-07T16:38:49;18.02;;;8.85;;
22849;SDS011;11591;44.792;10.358;2023-02-07T16:43:55;17.23;;;8.75;;
22849;SDS011;11591;44.792;10.358;2023-02-07T16:46:23;17.67;;;9.25;;
22849;SDS011;11591;44.792;10.358;2023-02-07T16:48:49;19.70;;;9.55;;
22849;SDS011;11591;44.792;10.358;2023-02-07T16:51:15;23.92;;;9.98;;
22849;SDS011;11591;44.792;10.358;2023-02-07T16:53:41;17.88;;;8.88;;
22849;SDS011;11591;44.792;10.358;2023-02-07T16:56:09;23.30;;;9.70;;
22849;SDS011;11591;44.792;10.358;2023-02-07T16:58:38;21.17;;;9.48;;
22849;SDS011;11591;44.792;10.358;2023-02-07T17:01:04;24.05;;;10.23;;
22849;SDS011;11591;44.792;10.358;2023-02-07T17:03:30;21.77;;;9.48;;
22849;SDS011;11591;44.792;10.358;2023-02-07T17:05:56;19.73;;;8.65;;